createdAt,value
2023-02-25T00:01:16.606Z,12.36
2023-02-25T00:03:43.775Z,12.64
2023-02-25T00:06:13.419Z,12.79
2023-02-25T00:08:44.306Z,12.81
2023-02-25T00:11:12.725Z,12.98
2023-02-25T00:13:40.994Z,12.94
2023-02-25T00:16:08.368Z,12.94
2023-02-25T00:18:35.406Z,12.78
2023-02-25T00:21:05.234Z,12.90
2023-02-25T00:23:31.779Z,13.08
2023-02-25T00:26:00.218Z,13.17
2023-02-25T00:28:27.428Z,13.02
2023-02-25T00:30:54.414Z,12.55
2023-02-25T00:33:21.275Z,12.65
2023-02-25T00:35:49.940Z,12.73
2023-02-25T00:38:17.511Z,12.62
2023-02-25T00:40:46.116Z,12.68
2023-02-25T00:43:12.739Z,12.81
2023-02-25T00:45:42.574Z,12.75
2023-02-25T00:48:09.265Z,12.89
2023-02-25T00:50:36.093Z,12.86
2023-02-25T00:53:02.930Z,12.93
2023-02-25T00:55:33.273Z,13.01
2023-02-25T00:58:01.266Z,12.58
2023-02-25T01:00:28.409Z,12.59
2023-02-25T01:02:57.428Z,12.62
2023-02-25T01:05:24.910Z,12.83
2023-02-25T01:07:52.746Z,12.76
2023-02-25T01:10:19.652Z,12.76
2023-02-25T01:12:46.558Z,12.96
2023-02-25T01:15:15.087Z,12.73
2023-02-25T01:17:42.800Z,12.61
2023-02-25T01:20:12.658Z,12.70
2023-02-25T01:22:41.709Z,12.72
2023-02-25T01:25:13.916Z,12.56
2023-02-25T01:27:40.469Z,12.48
2023-02-25T01:30:08.270Z,12.52
2023-02-25T01:32:35.425Z,12.61
2023-02-25T01:35:02.266Z,12.78
2023-02-25T01:37:30.077Z,13.09
2023-02-25T01:39:57.115Z,12.86
2023-02-25T01:42:23.948Z,12.58
2023-02-25T01:45:18.982Z,12.45
2023-02-25T01:48:03.207Z,12.87
2023-02-25T01:50:37.416Z,13.14
2023-02-25T01:53:06.040Z,13.04
2023-02-25T01:55:33.451Z,13.19
2023-02-25T01:58:01.232Z,13.26
2023-02-25T02:00:31.499Z,12.88
2023-02-25T02:02:58.567Z,13.19
2023-02-25T02:05:42.589Z,13.17
2023-02-25T02:08:10.044Z,13.11
2023-02-25T02:10:36.556Z,13.21
2023-02-25T02:13:03.726Z,12.97
2023-02-25T02:15:37.763Z,12.92
2023-02-25T02:18:07.402Z,12.94
2023-02-25T02:20:51.310Z,12.86
2023-02-25T02:23:46.787Z,12.93
2023-02-25T02:26:26.310Z,13.14
2023-02-25T02:29:08.922Z,12.97
2023-02-25T02:31:39.795Z,13.09
2023-02-25T02:34:26.575Z,13.38
2023-02-25T02:37:19.292Z,13.50
2023-02-25T02:39:54.668Z,13.67
2023-02-25T02:42:27.376Z,13.39
2023-02-25T02:45:02.569Z,13.25
2023-02-25T02:47:35.165Z,13.58
2023-02-25T02:50:25.772Z,13.78
2023-02-25T02:52:56.393Z,13.39
2023-02-25T02:55:28.195Z,13.60
2023-02-25T02:58:01.242Z,13.48
2023-02-25T03:00:34.265Z,13.35
2023-02-25T03:03:13.338Z,13.35
2023-02-25T03:05:42.721Z,13.15
2023-02-25T03:08:25.278Z,13.46
2023-02-25T03:10:51.953Z,13.88
2023-02-25T03:13:20.772Z,13.53
2023-02-25T03:15:49.100Z,13.46
2023-02-25T03:18:26.192Z,13.75
2023-02-25T03:20:56.050Z,13.95
2023-02-25T03:23:29.134Z,13.76
2023-02-25T03:26:10.684Z,13.67
2023-02-25T03:28:38.319Z,13.78
2023-02-25T03:31:10.263Z,13.98
2023-02-25T03:33:48.457Z,13.84
2023-02-25T03:36:41.149Z,13.80
2023-02-25T03:39:11.874Z,13.75
2023-02-25T03:41:42.533Z,13.77
2023-02-25T03:44:16.041Z,13.76
2023-02-25T03:46:46.018Z,13.97
2023-02-25T03:49:19.098Z,14.08
2023-02-25T03:51:48.961Z,13.81
2023-02-25T03:54:16.626Z,14.32
2023-02-25T03:56:48.258Z,14.28
2023-02-25T03:59:15.743Z,13.38
2023-02-25T04:01:46.542Z,13.14
2023-02-25T04:04:13.229Z,13.08
2023-02-25T04:06:40.431Z,13.24
2023-02-25T04:09:07.491Z,13.43
2023-02-25T04:11:34.053Z,13.24
2023-02-25T04:14:01.190Z,13.35
2023-02-25T04:16:27.694Z,13.27
2023-02-25T04:18:56.199Z,13.28
2023-02-25T04:21:30.124Z,13.15
2023-02-25T04:23:57.029Z,13.03
2023-02-25T04:26:24.538Z,13.13
2023-02-25T04:28:51.634Z,13.10
2023-02-25T04:31:18.527Z,12.98
2023-02-25T04:33:49.274Z,13.25
2023-02-25T04:36:36.118Z,12.98
2023-02-25T04:39:05.277Z,13.15
2023-02-25T04:41:34.373Z,13.13
2023-02-25T04:44:03.782Z,13.38
2023-02-25T04:46:31.276Z,13.95
2023-02-25T04:48:58.372Z,14.41
2023-02-25T04:51:24.966Z,14.15
2023-02-25T04:53:51.586Z,13.88
2023-02-25T04:56:18.346Z,13.34
2023-02-25T04:58:45.290Z,13.66
2023-02-25T05:01:12.818Z,13.23
2023-02-25T05:03:39.776Z,13.22
2023-02-25T05:06:07.342Z,12.97
2023-02-25T05:08:35.241Z,12.85
2023-02-25T05:11:02.629Z,12.88
2023-02-25T05:13:29.414Z,12.65
2023-02-25T05:16:10.798Z,12.96
2023-02-25T05:18:43.088Z,13.00
2023-02-25T05:21:21.729Z,13.06
2023-02-25T05:23:49.813Z,12.93
2023-02-25T05:26:21.390Z,13.05
2023-02-25T05:28:53.170Z,12.92
2023-02-25T05:31:21.416Z,12.80
2023-02-25T05:33:47.991Z,12.91
2023-02-25T05:36:15.611Z,12.87
2023-02-25T05:38:42.651Z,12.78
2023-02-25T05:41:11.541Z,12.96
2023-02-25T05:43:39.193Z,12.97
2023-02-25T05:46:11.486Z,12.93
2023-02-25T05:48:39.658Z,13.00
2023-02-25T05:51:10.578Z,13.15
2023-02-25T05:53:37.538Z,13.14
2023-02-25T05:56:09.617Z,13.06
2023-02-25T05:58:36.367Z,13.61
2023-02-25T06:01:11.254Z,13.13
2023-02-25T06:03:38.794Z,12.82
2023-02-25T06:06:06.839Z,12.86
2023-02-25T06:08:34.275Z,13.02
2023-02-25T06:11:01.769Z,13.09
2023-02-25T06:13:28.478Z,13.06
2023-02-25T06:15:55.051Z,13.08
2023-02-25T06:18:21.836Z,12.98
2023-02-25T06:20:48.346Z,12.88
2023-02-25T06:23:14.990Z,13.03
2023-02-25T06:25:41.472Z,13.01
2023-02-25T06:28:08.053Z,13.27
2023-02-25T06:30:34.625Z,13.22
2023-02-25T06:33:01.283Z,13.15
2023-02-25T06:35:28.300Z,13.19
2023-02-25T06:37:57.211Z,13.06
2023-02-25T06:40:23.845Z,13.02
2023-02-25T06:42:50.471Z,13.12
2023-02-25T06:45:17.123Z,13.21
2023-02-25T06:47:43.726Z,12.99
2023-02-25T06:50:11.083Z,13.24
2023-02-25T06:52:37.862Z,13.12
2023-02-25T06:55:06.688Z,13.29
2023-02-25T06:57:36.497Z,13.29
2023-02-25T07:00:05.539Z,13.27
2023-02-25T07:02:32.548Z,13.29
2023-02-25T07:05:01.145Z,13.29
2023-02-25T07:07:27.627Z,13.26
2023-02-25T07:09:54.476Z,13.59
2023-02-25T07:12:20.968Z,13.53
2023-02-25T07:14:47.559Z,13.29
2023-02-25T07:17:14.125Z,13.33
2023-02-25T07:19:40.652Z,13.51
2023-02-25T07:22:14.156Z,13.63
2023-02-25T07:24:40.850Z,13.43
2023-02-25T07:27:08.011Z,13.53
2023-02-25T07:29:34.594Z,13.46
2023-02-25T07:32:01.323Z,13.31
2023-02-25T07:34:27.961Z,13.48
2023-02-25T07:36:54.430Z,13.27
2023-02-25T07:39:21.017Z,13.18
2023-02-25T07:41:48.593Z,13.15
2023-02-25T07:44:18.541Z,13.24
2023-02-25T07:46:45.077Z,13.60
2023-02-25T07:49:11.906Z,13.71
2023-02-25T07:51:38.438Z,13.76
2023-02-25T07:54:05.129Z,13.56
2023-02-25T07:56:31.951Z,13.61
2023-02-25T07:58:58.652Z,13.64
2023-02-25T08:01:29.459Z,13.67
2023-02-25T08:03:58.724Z,13.76
2023-02-25T08:06:26.586Z,13.78
2023-02-25T08:08:55.184Z,13.74
2023-02-25T08:11:24.129Z,14.03
2023-02-25T08:13:50.834Z,13.90
2023-02-25T08:16:20.160Z,13.88
2023-02-25T08:18:47.273Z,13.85
2023-02-25T08:21:17.825Z,14.36
2023-02-25T08:23:44.347Z,13.95
2023-02-25T08:26:10.875Z,14.12
2023-02-25T08:28:37.872Z,14.39
2023-02-25T08:31:07.855Z,14.54
2023-02-25T08:33:34.475Z,14.56
2023-02-25T08:36:15.960Z,14.19
2023-02-25T08:38:42.693Z,14.27
2023-02-25T08:41:09.400Z,14.12
2023-02-25T08:43:37.401Z,14.19
2023-02-25T08:46:06.240Z,14.25
2023-02-25T08:48:33.698Z,14.06
2023-02-25T08:51:10.439Z,14.44
2023-02-25T08:53:39.031Z,14.40
2023-02-25T08:56:11.135Z,14.70
2023-02-25T08:58:39.348Z,14.57
2023-02-25T09:01:14.396Z,14.50
2023-02-25T09:03:52.674Z,14.23
2023-02-25T09:06:25.451Z,14.23
2023-02-25T09:08:53.059Z,14.26
2023-02-25T09:11:19.968Z,14.43
2023-02-25T09:13:46.560Z,14.60
2023-02-25T09:16:17.437Z,14.50
2023-02-25T09:18:48.797Z,14.77
2023-02-25T09:21:15.547Z,14.74
2023-02-25T09:23:42.533Z,15.02
2023-02-25T09:26:09.506Z,14.39
2023-02-25T09:28:36.529Z,14.29
2023-02-25T09:31:03.518Z,14.54
2023-02-25T09:33:35.711Z,14.20
2023-02-25T09:36:14.433Z,14.51
2023-02-25T09:38:42.661Z,14.55
2023-02-25T09:41:30.217Z,14.61
2023-02-25T09:44:01.967Z,14.07
2023-02-25T09:46:30.710Z,14.01
2023-02-25T09:49:05.609Z,13.96
2023-02-25T09:51:45.894Z,14.06
2023-02-25T09:54:41.787Z,13.85
2023-02-25T09:57:12.995Z,13.92
2023-02-25T09:59:39.641Z,13.94
2023-02-25T10:02:25.800Z,14.19
2023-02-25T10:05:07.679Z,14.00
2023-02-25T10:07:51.102Z,14.35
2023-02-25T10:10:26.024Z,14.71
2023-02-25T10:13:06.050Z,14.51
2023-02-25T10:15:53.097Z,14.50
2023-02-25T10:18:57.136Z,14.55
2023-02-25T10:21:37.599Z,14.37
2023-02-25T10:24:29.757Z,13.98
2023-02-25T10:27:03.242Z,14.31
2023-02-25T10:29:38.757Z,15.21
2023-02-25T10:32:20.718Z,15.04
2023-02-25T10:34:49.671Z,14.95
2023-02-25T10:37:26.933Z,14.90
2023-02-25T10:39:58.892Z,14.57
2023-02-25T10:42:26.201Z,14.71
2023-02-25T10:44:53.743Z,15.01
2023-02-25T10:47:34.672Z,15.20
2023-02-25T10:50:27.705Z,14.97
2023-02-25T10:53:14.400Z,15.04
2023-02-25T10:55:52.302Z,14.48
2023-02-25T10:58:25.812Z,14.56
2023-02-25T11:00:59.267Z,14.74
2023-02-25T11:03:28.461Z,15.03
2023-02-25T11:06:13.095Z,15.40
2023-02-25T11:08:39.905Z,15.77
2023-02-25T11:11:22.791Z,16.01
2023-02-25T11:14:16.556Z,16.10
2023-02-25T11:16:45.447Z,15.76
2023-02-25T11:19:28.880Z,15.51
2023-02-25T11:21:58.948Z,15.24
2023-02-25T11:24:28.674Z,14.89
2023-02-25T11:26:55.444Z,14.37
2023-02-25T11:29:28.765Z,14.11
2023-02-25T11:32:12.620Z,14.77
2023-02-25T11:34:49.135Z,14.67
2023-02-25T11:37:36.906Z,14.45
2023-02-25T11:40:24.454Z,14.63
2023-02-25T11:43:00.321Z,14.72
2023-02-25T11:45:30.245Z,14.26
2023-02-25T11:47:57.693Z,14.36
2023-02-25T11:50:48.492Z,14.59
2023-02-25T11:53:20.745Z,14.75
2023-02-25T11:56:13.382Z,14.98
2023-02-25T11:59:06.960Z,15.57
2023-02-25T12:01:39.677Z,15.25
2023-02-25T12:04:31.111Z,14.69
2023-02-25T12:07:04.672Z,14.23
2023-02-25T12:10:13.335Z,14.40
2023-02-25T12:13:11.005Z,15.11
2023-02-25T12:16:02.567Z,15.08
2023-02-25T12:19:17.176Z,15.91
2023-02-25T12:22:02.371Z,15.64
2023-02-25T12:24:58.422Z,15.75
2023-02-25T12:27:36.169Z,15.66
2023-02-25T12:30:27.353Z,15.81
2023-02-25T12:33:27.673Z,15.40
2023-02-25T12:36:09.876Z,15.26
2023-02-25T12:39:15.659Z,15.61
2023-02-25T12:41:49.801Z,15.17
2023-02-25T12:44:53.886Z,15.90
2023-02-25T12:47:53.793Z,15.62
2023-02-25T12:50:43.706Z,15.45
2023-02-25T12:53:51.340Z,15.18
2023-02-25T12:56:34.213Z,14.62
2023-02-25T12:59:25.345Z,14.88
2023-02-25T13:02:04.132Z,14.98
2023-02-25T13:04:46.018Z,15.33
2023-02-25T13:07:37.145Z,15.34
2023-02-25T13:10:11.581Z,15.08
2023-02-25T13:13:00.630Z,14.93
2023-02-25T13:15:54.885Z,14.77
2023-02-25T13:18:50.579Z,14.66
2023-02-25T13:21:32.869Z,15.17
2023-02-25T13:24:31.707Z,15.32
2023-02-25T13:27:19.418Z,15.09
2023-02-25T13:29:57.986Z,14.82
2023-02-25T13:32:49.877Z,14.78
2023-02-25T13:35:52.018Z,15.00
2023-02-25T13:38:38.999Z,15.35
2023-02-25T13:41:42.150Z,15.32
2023-02-25T13:44:27.810Z,15.45
2023-02-25T13:47:25.418Z,15.54
2023-02-25T13:50:22.742Z,15.76
2023-02-25T13:53:21.663Z,15.43
2023-02-25T13:56:26.074Z,15.72
2023-02-25T13:59:16.356Z,15.15
2023-02-25T14:01:50.003Z,15.68
2023-02-25T14:04:44.585Z,15.69
2023-02-25T14:07:21.852Z,16.05
2023-02-25T14:10:32.195Z,16.07
2023-02-25T14:13:40.731Z,15.29
2023-02-25T14:16:39.032Z,14.97
2023-02-25T14:19:39.886Z,15.11
2023-02-25T14:22:34.222Z,15.24
2023-02-25T14:25:18.668Z,14.97
2023-02-25T14:28:13.543Z,15.66
2023-02-25T14:31:04.927Z,15.20
2023-02-25T14:33:56.338Z,15.55
2023-02-25T14:36:49.102Z,15.30
2023-02-25T14:39:31.024Z,15.70
2023-02-25T14:42:19.741Z,15.55
2023-02-25T14:45:00.958Z,15.25
2023-02-25T14:47:42.572Z,15.26
2023-02-25T14:50:15.790Z,15.18
2023-02-25T14:53:16.712Z,15.57
2023-02-25T14:55:49.302Z,16.31
2023-02-25T14:58:22.037Z,16.51
2023-02-25T15:01:20.154Z,15.95
2023-02-25T15:04:10.021Z,16.17
2023-02-25T15:06:49.901Z,16.73
2023-02-25T15:09:23.507Z,16.46
2023-02-25T15:11:53.107Z,16.75
2023-02-25T15:14:40.401Z,16.82
2023-02-25T15:17:28.927Z,16.73
2023-02-25T15:20:21.874Z,17.35
2023-02-25T15:23:09.847Z,17.81
2023-02-25T15:25:38.090Z,17.44
2023-02-25T15:28:30.440Z,17.11
2023-02-25T15:31:03.199Z,17.08
2023-02-25T15:33:45.380Z,16.54
2023-02-25T15:36:15.013Z,16.51
2023-02-25T15:38:56.153Z,17.43
2023-02-25T15:41:28.732Z,17.75
2023-02-25T15:44:07.873Z,17.51
2023-02-25T15:46:34.559Z,17.27
2023-02-25T15:49:22.372Z,17.78
2023-02-25T15:51:55.365Z,17.24
2023-02-25T15:54:28.204Z,17.00
2023-02-25T15:57:24.525Z,17.06
2023-02-25T15:59:57.391Z,17.16
2023-02-25T16:02:30.092Z,17.24
2023-02-25T16:05:01.786Z,17.70
2023-02-25T16:07:36.063Z,17.48
2023-02-25T16:10:09.069Z,17.63
2023-02-25T16:12:38.540Z,17.48
2023-02-25T16:15:06.220Z,17.38
2023-02-25T16:17:35.558Z,16.88
2023-02-25T16:20:23.042Z,17.00
2023-02-25T16:23:01.664Z,17.30
2023-02-25T16:25:46.976Z,17.67
2023-02-25T16:29:07.711Z,17.47
2023-02-25T16:31:38.924Z,17.57
2023-02-25T16:34:12.533Z,17.37
2023-02-25T16:36:53.626Z,17.13
2023-02-25T16:39:23.664Z,17.21
2023-02-25T16:41:52.159Z,17.42
2023-02-25T16:44:37.028Z,16.45
2023-02-25T16:47:20.140Z,16.42
2023-02-25T16:49:47.473Z,16.44
2023-02-25T16:52:19.742Z,16.57
2023-02-25T16:54:49.181Z,16.24
2023-02-25T16:57:24.590Z,16.12
2023-02-25T17:00:04.958Z,15.73
2023-02-25T17:02:31.611Z,15.76
2023-02-25T17:04:58.298Z,15.98
2023-02-25T17:07:27.862Z,16.05
2023-02-25T17:10:00.715Z,16.13
2023-02-25T17:12:33.222Z,16.04
2023-02-25T17:15:04.439Z,15.85
2023-02-25T17:17:34.439Z,15.83
2023-02-25T17:20:09.007Z,16.12
2023-02-25T17:22:37.795Z,16.13
2023-02-25T17:25:05.984Z,16.02
2023-02-25T17:27:33.780Z,15.82
2023-02-25T17:30:00.302Z,15.94
2023-02-25T17:32:29.853Z,15.40
2023-02-25T17:35:00.816Z,15.53
2023-02-25T17:37:30.242Z,15.32
2023-02-25T17:39:59.197Z,14.98
2023-02-25T17:42:32.270Z,15.25
2023-02-25T17:45:00.787Z,14.75
2023-02-25T17:47:33.183Z,14.84
2023-02-25T17:50:21.765Z,14.68
2023-02-25T17:52:48.888Z,14.68
2023-02-25T17:55:33.963Z,14.65
2023-02-25T17:58:01.880Z,14.98
2023-02-25T18:00:32.247Z,14.86
2023-02-25T18:03:21.594Z,14.54
2023-02-25T18:05:55.007Z,14.70
2023-02-25T18:08:54.840Z,14.39
2023-02-25T18:11:33.782Z,14.05
2023-02-25T18:14:43.606Z,14.05
2023-02-25T18:17:13.091Z,13.79
2023-02-25T18:19:42.243Z,13.86
2023-02-25T18:22:23.771Z,14.30
2023-02-25T18:25:00.194Z,14.26
2023-02-25T18:27:30.145Z,14.03
2023-02-25T18:30:00.241Z,14.24
2023-02-25T18:32:27.426Z,14.00
2023-02-25T18:34:54.129Z,14.14
2023-02-25T18:37:20.869Z,14.09
2023-02-25T18:39:48.246Z,14.21
2023-02-25T18:42:16.912Z,14.08
2023-02-25T18:44:45.509Z,13.93
2023-02-25T18:47:12.057Z,14.20
2023-02-25T18:49:38.672Z,14.13
2023-02-25T18:52:11.208Z,14.06
2023-02-25T18:54:37.802Z,14.16
2023-02-25T18:57:16.097Z,14.22
2023-02-25T18:59:42.617Z,14.19
2023-02-25T19:02:25.132Z,14.36
2023-02-25T19:04:53.019Z,14.25
2023-02-25T19:07:19.554Z,14.53
2023-02-25T19:09:46.169Z,14.46
2023-02-25T19:12:13.882Z,14.58
2023-02-25T19:14:42.671Z,14.23
2023-02-25T19:17:15.496Z,14.02
2023-02-25T19:19:46.297Z,13.94
2023-02-25T19:22:15.157Z,13.70
2023-02-25T19:24:43.308Z,13.97
2023-02-25T19:27:18.817Z,14.10
2023-02-25T19:29:47.452Z,14.06
2023-02-25T19:32:14.139Z,13.85
2023-02-25T19:34:42.031Z,13.82
2023-02-25T19:37:08.517Z,14.00
2023-02-25T19:39:35.105Z,13.81
2023-02-25T19:42:01.584Z,13.60
2023-02-25T19:44:28.133Z,13.28
2023-02-25T19:46:54.740Z,13.46
2023-02-25T19:49:21.453Z,13.38
2023-02-25T19:51:47.928Z,13.22
2023-02-25T19:54:14.558Z,13.22
2023-02-25T19:56:41.282Z,13.51
2023-02-25T19:59:11.700Z,13.68
2023-02-25T20:01:39.629Z,13.66
2023-02-25T20:04:07.595Z,13.74
2023-02-25T20:06:34.757Z,13.79
2023-02-25T20:09:07.067Z,13.80
2023-02-25T20:11:34.171Z,13.77
2023-02-25T20:14:01.613Z,13.62
2023-02-25T20:16:28.587Z,13.57
2023-02-25T20:18:57.547Z,13.35
2023-02-25T20:21:25.507Z,13.22
2023-02-25T20:23:53.160Z,12.95
2023-02-25T20:26:23.060Z,12.97
2023-02-25T20:28:52.917Z,13.46
2023-02-25T20:31:21.128Z,13.63
2023-02-25T20:33:53.466Z,13.65
2023-02-25T20:36:22.734Z,13.67
2023-02-25T20:39:23.989Z,13.47
2023-02-25T20:41:51.402Z,13.35
2023-02-25T20:44:18.156Z,13.46
2023-02-25T20:46:45.174Z,13.88
2023-02-25T20:49:17.919Z,13.58
2023-02-25T20:51:47.126Z,13.56
2023-02-25T20:54:16.993Z,13.34
2023-02-25T20:56:44.005Z,13.10
2023-02-25T20:59:12.728Z,12.87
2023-02-25T21:01:39.831Z,12.93
2023-02-25T21:04:06.730Z,12.94
2023-02-25T21:06:33.915Z,12.83
2023-02-25T21:09:00.935Z,12.82
2023-02-25T21:11:27.767Z,12.90
2023-02-25T21:13:54.763Z,12.79
2023-02-25T21:16:23.848Z,12.69
2023-02-25T21:18:51.516Z,12.67
2023-02-25T21:21:20.360Z,12.69
2023-02-25T21:23:47.347Z,12.61
2023-02-25T21:26:13.986Z,12.63
2023-02-25T21:28:41.331Z,13.19
2023-02-25T21:31:10.712Z,13.30
2023-02-25T21:33:40.445Z,13.86
2023-02-25T21:36:09.019Z,13.71
2023-02-25T21:38:36.796Z,13.67
2023-02-25T21:41:07.910Z,13.80
2023-02-25T21:43:35.029Z,13.67
2023-02-25T21:46:03.386Z,13.56
2023-02-25T21:48:30.982Z,13.65
2023-02-25T21:50:58.416Z,13.62
2023-02-25T21:53:27.409Z,13.73
2023-02-25T21:55:54.830Z,13.74
2023-02-25T21:58:22.745Z,13.60
2023-02-25T22:00:49.831Z,13.73
2023-02-25T22:03:16.725Z,13.67
2023-02-25T22:05:46.768Z,13.53
2023-02-25T22:08:14.303Z,13.67
2023-02-25T22:10:41.069Z,13.77
2023-02-25T22:13:08.352Z,13.87
2023-02-25T22:15:35.331Z,13.64
2023-02-25T22:18:02.394Z,13.49
2023-02-25T22:20:28.926Z,13.28
2023-02-25T22:22:57.845Z,12.94
2023-02-25T22:25:24.435Z,12.95
2023-02-25T22:27:51.992Z,12.79
2023-02-25T22:30:18.748Z,12.86
2023-02-25T22:32:45.301Z,13.21
2023-02-25T22:35:11.846Z,13.39
2023-02-25T22:37:38.414Z,13.37
2023-02-25T22:40:05.555Z,13.45
2023-02-25T22:42:32.245Z,13.18
2023-02-25T22:44:58.754Z,13.22
2023-02-25T22:47:25.372Z,13.23
2023-02-25T22:49:51.916Z,13.27
2023-02-25T22:52:18.445Z,13.23
2023-02-25T22:54:45.965Z,13.23
2023-02-25T22:57:12.517Z,13.52
2023-02-25T22:59:39.057Z,13.24
2023-02-25T23:02:05.609Z,13.19
2023-02-25T23:04:32.766Z,13.01
2023-02-25T23:07:00.884Z,12.91
2023-02-25T23:09:27.469Z,12.93
2023-02-25T23:11:55.076Z,12.99
2023-02-25T23:14:21.637Z,13.08
2023-02-25T23:16:48.448Z,13.18
2023-02-25T23:19:17.441Z,13.14
2023-02-25T23:21:44.634Z,12.96
2023-02-25T23:24:18.366Z,12.96
2023-02-25T23:26:47.351Z,12.91
2023-02-25T23:29:14.170Z,12.82
2023-02-25T23:31:46.784Z,12.92
2023-02-25T23:34:18.243Z,12.93
2023-02-25T23:36:45.152Z,12.92
2023-02-25T23:39:13.768Z,12.91
2023-02-25T23:41:40.858Z,12.73
2023-02-25T23:44:09.053Z,12.63
2023-02-25T23:46:36.314Z,12.63
2023-02-25T23:49:07.372Z,12.57
2023-02-25T23:51:34.518Z,12.44
2023-02-25T23:54:04.982Z,12.32
2023-02-25T23:56:32.908Z,12.44
2023-02-25T23:58:59.530Z,12.51
